Terminal Aerodrome Forecast
Issued by NWS

Home | Current Version | Previous Version | Text Only | Print | Product List | Glossary On
Versions: 1 2 3 4 5 6 7 8 9 10 11 12 13 14 15
000
FTUS46 KMFR 170500 RRA
TAFRBG
TAF
KRBG 170544Z 1706/1806 01005KT P6SM SKC
     FM170800 00000KT P6SM SKC
     FM172200 35005KT P6SM SCT090 OVC120
     FM180400 00000KT P6SM OVC090=

USA.gov is the U.S. government's official web portal to all federal, state and local government web resources and services.